TRA34P LKPR-EHEH
Flight info
| Callsign | TRA34P |
|---|---|
| Flight time | N/A |
| Altitude | 38000 |
| Route | BALTU DCT DONAD DCT VARIK L602 SODRO DCT KATCE DCT WRB/N0376F240 DCT DOMEG DCT ROTEK |
| Aircraft | B738/M-SDE2E3FGHIJ1RWXY/LB1 |
Departure
| Time | 2026-05-04 13:06 |
|---|---|
| Airport | Václav Havel Airport Prague (LKPR) |
Arrival
| Time | N/A |
|---|---|
| Airport | Eindhoven Airport (EHEH) |
| Time | Latitude | Longitude | Altitude | Speed | Heading |
|---|---|---|---|---|---|
| 2026-05-04 12:28 | 50.10412 | 14.26633 | 1177 ft | 0 kts | 34° |
| 2026-05-04 12:57 | 50.10395 | 14.26617 | 1178 ft | 4 kts | 18° |
| 2026-05-04 12:57 | 50.10371 | 14.26614 | 1174 ft | 4 kts | 333° |
| 2026-05-04 12:57 | 50.10358 | 14.26629 | 1173 ft | 0 kts | 304° |
| 2026-05-04 13:00 | 50.10362 | 14.26619 | 1176 ft | 3 kts | 304° |
| 2026-05-04 13:00 | 50.10387 | 14.26565 | 1179 ft | 9 kts | 305° |
| 2026-05-04 13:01 | 50.10441 | 14.26458 | 1174 ft | 15 kts | 305° |
| 2026-05-04 13:01 | 50.10504 | 14.26319 | 1177 ft | 16 kts | 305° |
| 2026-05-04 13:01 | 50.10513 | 14.26193 | 1174 ft | 12 kts | 224° |
| 2026-05-04 13:01 | 50.10438 | 14.26132 | 1186 ft | 12 kts | 175° |
| 2026-05-04 13:02 | 50.10379 | 14.26227 | 1188 ft | 14 kts | 127° |
| 2026-05-04 13:02 | 50.10309 | 14.26374 | 1191 ft | 18 kts | 127° |
| 2026-05-04 13:02 | 50.10228 | 14.26541 | 1194 ft | 21 kts | 127° |
| 2026-05-04 13:02 | 50.10133 | 14.26739 | 1197 ft | 24 kts | 127° |
| 2026-05-04 13:03 | 50.10034 | 14.26943 | 1202 ft | 23 kts | 127° |
| 2026-05-04 13:03 | 50.09940 | 14.27138 | 1205 ft | 22 kts | 126° |
| 2026-05-04 13:03 | 50.09846 | 14.27328 | 1204 ft | 22 kts | 133° |
| 2026-05-04 13:03 | 50.09739 | 14.27492 | 1205 ft | 21 kts | 135° |
| 2026-05-04 13:04 | 50.09632 | 14.27652 | 1207 ft | 22 kts | 136° |
| 2026-05-04 13:04 | 50.09520 | 14.27825 | 1211 ft | 23 kts | 135° |
| 2026-05-04 13:04 | 50.09409 | 14.27996 | 1217 ft | 22 kts | 135° |
| 2026-05-04 13:04 | 50.09304 | 14.28162 | 1222 ft | 21 kts | 135° |
| 2026-05-04 13:05 | 50.09197 | 14.28294 | 1229 ft | 16 kts | 171° |
| 2026-05-04 13:05 | 50.09116 | 14.28233 | 1236 ft | 13 kts | 218° |
| 2026-05-04 13:05 | 50.09063 | 14.28139 | 1233 ft | 10 kts | 284° |
| 2026-05-04 13:05 | 50.09114 | 14.28029 | 1232 ft | 18 kts | 307° |
| 2026-05-04 13:06 | 50.09336 | 14.27571 | 1223 ft | 89 kts | 307° |
| 2026-05-04 13:06 | 50.09840 | 14.26523 | 1212 ft | 150 kts | 307° |
| 2026-05-04 13:06 | 50.10544 | 14.25092 | 1579 ft | 169 kts | 308° |
| 2026-05-04 13:06 | 50.11247 | 14.23667 | 2424 ft | 168 kts | 307° |
| 2026-05-04 13:07 | 50.12038 | 14.22061 | 2897 ft | 195 kts | 307° |
| 2026-05-04 13:07 | 50.12868 | 14.20335 | 3130 ft | 221 kts | 306° |
| 2026-05-04 13:07 | 50.13829 | 14.18321 | 3452 ft | 239 kts | 306° |
| 2026-05-04 13:07 | 50.14876 | 14.16133 | 3785 ft | 261 kts | 306° |
| 2026-05-04 13:08 | 50.15972 | 14.13844 | 4615 ft | 264 kts | 306° |
| 2026-05-04 13:08 | 50.17079 | 14.11534 | 5516 ft | 267 kts | 306° |
| 2026-05-04 13:08 | 50.18200 | 14.09196 | 6362 ft | 271 kts | 305° |
| 2026-05-04 13:08 | 50.19326 | 14.06838 | 7202 ft | 272 kts | 304° |
| 2026-05-04 13:09 | 50.20463 | 14.04458 | 7985 ft | 275 kts | 304° |
| 2026-05-04 13:09 | 50.21615 | 14.02047 | 8792 ft | 278 kts | 303° |
| 2026-05-04 13:09 | 50.22481 | 13.99381 | 9566 ft | 276 kts | 279° |
| 2026-05-04 13:09 | 50.22504 | 13.96413 | 10317 ft | 276 kts | 261° |
| 2026-05-04 13:10 | 50.22441 | 13.93293 | 10547 ft | 301 kts | 273° |
| 2026-05-04 13:10 | 50.22671 | 13.89920 | 10785 ft | 322 kts | 274° |
| 2026-05-04 13:10 | 50.22906 | 13.86390 | 11311 ft | 332 kts | 274° |
| 2026-05-04 13:10 | 50.23125 | 13.82778 | 12042 ft | 335 kts | 273° |
| 2026-05-04 13:11 | 50.23327 | 13.79145 | 12838 ft | 337 kts | 273° |
| 2026-05-04 13:11 | 50.23516 | 13.75480 | 13610 ft | 341 kts | 272° |
| 2026-05-04 13:11 | 50.23697 | 13.71764 | 14294 ft | 345 kts | 272° |
| 2026-05-04 13:11 | 50.23875 | 13.68010 | 14972 ft | 349 kts | 272° |
| 2026-05-04 13:12 | 50.24048 | 13.64206 | 15671 ft | 353 kts | 272° |
| 2026-05-04 13:12 | 50.24220 | 13.60365 | 16360 ft | 357 kts | 272° |
| 2026-05-04 13:12 | 50.24398 | 13.56466 | 17060 ft | 362 kts | 272° |
| 2026-05-04 13:12 | 50.24578 | 13.52519 | 17732 ft | 366 kts | 272° |
| 2026-05-04 13:13 | 50.24754 | 13.48538 | 18393 ft | 370 kts | 272° |
| 2026-05-04 13:13 | 50.24931 | 13.44502 | 18990 ft | 374 kts | 272° |
| 2026-05-04 13:13 | 50.25112 | 13.40440 | 19608 ft | 376 kts | 272° |
| 2026-05-04 13:13 | 50.25294 | 13.36343 | 20218 ft | 379 kts | 272° |
| 2026-05-04 13:14 | 50.25475 | 13.32216 | 20816 ft | 382 kts | 272° |
| 2026-05-04 13:14 | 50.25652 | 13.28065 | 21434 ft | 384 kts | 272° |
| 2026-05-04 13:14 | 50.25827 | 13.23886 | 22027 ft | 387 kts | 272° |
| 2026-05-04 13:14 | 50.25940 | 13.21104 | 22391 ft | 389 kts | 272° |
| 2026-05-04 13:15 | 50.26112 | 13.16864 | 22939 ft | 392 kts | 272° |
| 2026-05-04 13:15 | 50.26290 | 13.12598 | 23503 ft | 396 kts | 272° |
| 2026-05-04 13:15 | 50.26468 | 13.08289 | 23980 ft | 398 kts | 272° |
| 2026-05-04 13:15 | 50.26642 | 13.03954 | 24476 ft | 400 kts | 272° |
| 2026-05-04 13:16 | 50.26813 | 12.99616 | 24981 ft | 401 kts | 272° |
| 2026-05-04 13:16 | 50.26984 | 12.95257 | 25435 ft | 403 kts | 272° |
| 2026-05-04 13:16 | 50.27160 | 12.90871 | 25836 ft | 406 kts | 272° |
| 2026-05-04 13:16 | 50.27334 | 12.86445 | 26285 ft | 408 kts | 272° |
| 2026-05-04 13:17 | 50.27503 | 12.82016 | 26758 ft | 409 kts | 271° |
| 2026-05-04 13:17 | 50.27670 | 12.77575 | 27220 ft | 410 kts | 271° |
| 2026-05-04 13:17 | 50.27837 | 12.73111 | 27654 ft | 412 kts | 271° |
| 2026-05-04 13:17 | 50.28004 | 12.68620 | 28073 ft | 414 kts | 271° |
| 2026-05-04 13:18 | 50.28173 | 12.64116 | 28480 ft | 416 kts | 271° |
| 2026-05-04 13:18 | 50.28338 | 12.59597 | 28876 ft | 417 kts | 271° |
| 2026-05-04 13:18 | 50.28502 | 12.55065 | 29275 ft | 419 kts | 271° |
| 2026-05-04 13:18 | 50.28670 | 12.50507 | 29669 ft | 421 kts | 271° |
| 2026-05-04 13:19 | 50.28832 | 12.45926 | 30012 ft | 423 kts | 271° |
| 2026-05-04 13:19 | 50.29048 | 12.41331 | 30292 ft | 426 kts | 276° |
| 2026-05-04 13:19 | 50.29654 | 12.36833 | 30600 ft | 429 kts | 283° |
| 2026-05-04 13:19 | 50.30699 | 12.32400 | 31048 ft | 430 kts | 292° |
| 2026-05-04 13:20 | 50.32000 | 12.28203 | 31555 ft | 427 kts | 292° |
| 2026-05-04 13:20 | 50.33273 | 12.24090 | 32010 ft | 424 kts | 292° |
| 2026-05-04 13:20 | 50.34544 | 12.19928 | 32393 ft | 423 kts | 292° |
| 2026-05-04 13:20 | 50.35868 | 12.15806 | 32771 ft | 423 kts | 293° |
| 2026-05-04 13:21 | 50.37215 | 12.11716 | 33181 ft | 422 kts | 294° |
| 2026-05-04 13:21 | 50.38558 | 12.07649 | 33620 ft | 419 kts | 293° |
| 2026-05-04 13:21 | 50.39889 | 12.03584 | 33927 ft | 420 kts | 293° |
| 2026-05-04 13:21 | 50.41215 | 11.99497 | 34176 ft | 421 kts | 293° |
| 2026-05-04 13:22 | 50.42538 | 11.95404 | 34498 ft | 419 kts | 292° |
| 2026-05-04 13:22 | 50.43849 | 11.91326 | 34801 ft | 419 kts | 293° |
| 2026-05-04 13:22 | 50.45161 | 11.87248 | 35057 ft | 419 kts | 293° |
| 2026-05-04 13:22 | 50.46471 | 11.83163 | 35316 ft | 419 kts | 292° |
| 2026-05-04 13:23 | 50.47776 | 11.79074 | 35600 ft | 418 kts | 292° |
| 2026-05-04 13:23 | 50.49078 | 11.74999 | 35867 ft | 418 kts | 293° |
| 2026-05-04 13:23 | 50.50381 | 11.70911 | 36110 ft | 418 kts | 293° |
| 2026-05-04 13:23 | 50.51682 | 11.66830 | 36380 ft | 418 kts | 293° |
| 2026-05-04 13:24 | 50.52977 | 11.62756 | 36622 ft | 417 kts | 292° |
| 2026-05-04 13:24 | 50.54270 | 11.58667 | 36861 ft | 418 kts | 292° |
| 2026-05-04 13:24 | 50.55561 | 11.54578 | 37108 ft | 417 kts | 292° |
| 2026-05-04 13:25 | 50.58139 | 11.46416 | 37611 ft | 416 kts | 292° |
| 2026-05-04 13:25 | 50.59423 | 11.42341 | 37839 ft | 416 kts | 292° |
| 2026-05-04 13:25 | 50.60708 | 11.38256 | 37973 ft | 417 kts | 292° |
| 2026-05-04 13:25 | 50.61999 | 11.34137 | 37975 ft | 421 kts | 292° |
| 2026-05-04 13:26 | 50.64605 | 11.25812 | 37977 ft | 424 kts | 292° |
| 2026-05-04 13:26 | 50.67199 | 11.17486 | 37973 ft | 423 kts | 292° |
| 2026-05-04 13:27 | 50.69783 | 11.09170 | 37981 ft | 422 kts | 292° |
| 2026-05-04 13:27 | 50.72359 | 11.00862 | 37982 ft | 421 kts | 292° |
| 2026-05-04 13:28 | 50.74916 | 10.92598 | 37985 ft | 419 kts | 292° |
| 2026-05-04 13:28 | 50.77464 | 10.84301 | 37986 ft | 420 kts | 292° |
| 2026-05-04 13:29 | 50.80017 | 10.75985 | 37987 ft | 421 kts | 292° |
| 2026-05-04 13:29 | 50.82545 | 10.67693 | 37985 ft | 421 kts | 291° |
| 2026-05-04 13:30 | 50.85085 | 10.59346 | 37986 ft | 422 kts | 292° |
| 2026-05-04 13:30 | 50.87636 | 10.50972 | 37986 ft | 423 kts | 291° |
| 2026-05-04 13:31 | 50.90184 | 10.42557 | 37975 ft | 424 kts | 291° |
| 2026-05-04 13:31 | 50.92722 | 10.34135 | 37983 ft | 424 kts | 291° |
| 2026-05-04 13:32 | 50.95256 | 10.25698 | 37975 ft | 424 kts | 291° |
| 2026-05-04 13:32 | 50.97788 | 10.17235 | 37969 ft | 425 kts | 291° |
| 2026-05-04 13:33 | 51.00321 | 10.08755 | 37963 ft | 425 kts | 291° |
| 2026-05-04 13:33 | 51.02841 | 10.00282 | 37968 ft | 424 kts | 291° |
| 2026-05-04 13:34 | 51.05352 | 9.91809 | 37973 ft | 424 kts | 291° |
| 2026-05-04 13:34 | 51.07863 | 9.83316 | 37956 ft | 424 kts | 291° |
| 2026-05-04 13:35 | 51.11607 | 9.70574 | 37966 ft | 423 kts | 290° |
| 2026-05-04 13:36 | 51.14085 | 9.62079 | 37967 ft | 423 kts | 290° |
| 2026-05-04 13:36 | 51.16566 | 9.53589 | 37970 ft | 423 kts | 291° |
| 2026-05-04 13:37 | 51.19035 | 9.45089 | 37963 ft | 423 kts | 290° |
| 2026-05-04 13:37 | 51.21496 | 9.36570 | 37971 ft | 423 kts | 290° |
| 2026-05-04 13:38 | 51.23953 | 9.28058 | 37967 ft | 422 kts | 290° |
| 2026-05-04 13:38 | 51.26404 | 9.19534 | 37961 ft | 422 kts | 290° |
| 2026-05-04 13:39 | 51.28844 | 9.11017 | 37968 ft | 421 kts | 290° |
| 2026-05-04 13:39 | 51.31273 | 9.02503 | 37963 ft | 421 kts | 290° |
| 2026-05-04 13:40 | 51.33696 | 8.93988 | 37909 ft | 421 kts | 290° |
| 2026-05-04 13:40 | 51.34911 | 8.89704 | 37428 ft | 422 kts | 289° |
| 2026-05-04 13:40 | 51.36116 | 8.85445 | 36896 ft | 419 kts | 289° |
| 2026-05-04 13:40 | 51.37305 | 8.81246 | 36563 ft | 412 kts | 289° |
| 2026-05-04 13:41 | 51.38481 | 8.77091 | 36148 ft | 407 kts | 289° |
| 2026-05-04 13:41 | 51.39641 | 8.72980 | 35765 ft | 402 kts | 289° |
| 2026-05-04 13:41 | 51.40781 | 8.68914 | 35359 ft | 398 kts | 289° |
| 2026-05-04 13:42 | 51.43029 | 8.60901 | 34590 ft | 391 kts | 288° |
| 2026-05-04 13:42 | 51.44135 | 8.56939 | 34214 ft | 387 kts | 288° |
| 2026-05-04 13:42 | 51.45232 | 8.53018 | 33818 ft | 384 kts | 288° |
| 2026-05-04 13:42 | 51.46316 | 8.49122 | 33395 ft | 381 kts | 288° |
| 2026-05-04 13:43 | 51.47385 | 8.45271 | 33019 ft | 376 kts | 288° |
| 2026-05-04 13:43 | 51.48448 | 8.41462 | 32647 ft | 372 kts | 288° |
| 2026-05-04 13:43 | 51.49495 | 8.37691 | 32274 ft | 369 kts | 287° |
| 2026-05-04 13:43 | 51.50532 | 8.33930 | 31897 ft | 366 kts | 287° |
| 2026-05-04 13:44 | 51.51597 | 8.30228 | 31553 ft | 365 kts | 290° |
| 2026-05-04 13:44 | 51.52582 | 8.27334 | 25536 ft | 160 kts | 289° |
| 2026-05-04 13:44 | 51.52697 | 8.28338 | 10900 ft | 167 kts | 97° |
| 2026-05-04 13:44 | 51.53122 | 8.24006 | 1370 ft | 606 kts | 279° |
| 2026-05-04 13:45 | 51.53776 | 8.17694 | 767 ft | 546 kts | 279° |
| 2026-05-04 13:45 | 51.53240 | 8.14901 | 681 ft | 195 kts | 201° |
| 2026-05-04 13:45 | 51.52782 | 8.14503 | 704 ft | 0 kts | 113° |